Terminal Aerodrome Forecast
Issued by NWS

Current Version | Previous Version | Text Only | Print | Product List | Glossary On
Versions: 1 2 3 4 5 6 7 8 9 10 11 12 13 14 15
000
FTUS42 KTAE 300521
TAFDHN
TAF
KDHN 300521Z 3006/0106 16007KT P6SM SCT100
     FM300900 13009KT P6SM SCT050
     FM301400 15014KT P6SM BKN050
     FM301800 17016G22KT P6SM BKN050=

USA.gov is the U.S. government's official web portal to all federal, state and local government web resources and services.